Time;durP1;ratioP1;P1;durP2;ratioP2;P2;SDS_P1;SDS_P2;PMS_P1;PMS_P2;Temp;Humidity;BMP_temperature;BMP_pressure;BME280_temperature;BME280_humidity;BME280_pressure;Samples;Min_cycle;Max_cycle;Signal;HPM_P1;HPM_P2
2024/01/06 00:00:02;;;;;;;10.02;2.38;;;;;;;15.38;67.48;95075.84;6155544;23;20032;-27
2024/01/06 00:15:54;;;;;;;5.97;2.60;;;;;;;15.21;66.60;95053.91;6153523;23;20089;-27
2024/01/06 00:31:46;;;;;;;7.35;2.00;;;;;;;15.30;66.04;95047.50;6155208;23;20016;-27
2024/01/06 00:47:39;;;;;;;8.00;2.55;;;;;;;15.34;65.42;95026.16;6156811;23;20016;-27
2024/01/06 01:00:46;;;;;;;7.30;2.08;;;;;;;15.08;65.31;95018.84;6157119;23;20016;-27
2024/01/06 01:03:11;;;;;;;5.72;1.95;;;;;;;14.93;65.91;95014.81;6156894;23;20005;-26
2024/01/06 01:05:37;;;;;;;3.40;2.00;;;;;;;15.14;64.99;95007.97;6156792;23;20052;-26
2024/01/06 01:08:02;;;;;;;6.05;1.70;;;;;;;15.27;64.54;95011.00;6157101;23;20073;-26
2024/01/06 01:17:11;;;;;;;12.13;3.05;;;;;;;15.18;65.12;94997.56;6155516;23;20407;-26
2024/01/06 01:33:03;;;;;;;5.75;2.10;;;;;;;15.19;65.54;94987.38;6156641;23;20016;-26
2024/01/06 01:46:17;;;;;;;6.32;1.95;;;;;;;15.25;65.59;94977.94;6156375;23;20410;-26
2024/01/06 02:02:10;;;;;;;5.97;2.42;;;;;;;15.29;65.53;94969.53;6156180;23;20056;-26
2024/01/06 02:18:02;;;;;;;4.35;2.08;;;;;;;15.19;66.35;94954.59;6154695;23;20033;-26
2024/01/06 02:47:21;;;;;;;4.78;1.60;;;;;;;15.19;67.20;94930.03;6155791;23;20140;-27
2024/01/06 03:03:14;;;;;;;4.05;1.20;;;;;;;15.39;67.23;94897.78;6155784;23;20059;-27
2024/01/06 03:19:06;;;;;;;2.90;1.40;;;;;;;15.50;67.29;94877.94;6154138;23;20032;-26
2024/01/06 03:32:28;;;;;;;1.40;1.10;;;;;;;15.24;68.74;94867.22;6155929;23;20340;-27
2024/01/06 03:48:20;;;;;;;3.22;1.10;;;;;;;15.08;69.22;94848.84;6155151;23;20071;-26
2024/01/06 04:04:13;;;;;;;4.57;1.20;;;;;;;15.20;68.86;94825.78;6155022;23;20012;-27
2024/01/06 04:34:24;;;;;;;1.70;1.00;;;;;;;15.18;69.18;94820.06;6155303;23;20110;-27
2024/01/06 04:50:17;;;;;;;4.85;0.90;;;;;;;15.25;68.01;94799.69;6155018;23;20016;-27
2024/01/06 05:03:28;;;;;;;2.78;1.02;;;;;;;15.25;68.36;94784.06;6155049;23;20020;-26
2024/01/06 05:19:21;;;;;;;3.17;1.08;;;;;;;15.24;67.80;94784.53;6153813;23;20352;-26
2024/01/06 05:35:12;;;;;;;4.93;2.35;;;;;;;14.97;68.70;94764.16;6156507;23;20016;-27
2024/01/06 06:04:32;;;;;;;4.95;1.40;;;;;;;15.13;69.72;94754.50;6156452;23;20068;-27
2024/01/06 06:06:58;;;;;;;5.63;1.80;;;;;;;15.20;69.41;94754.03;6156085;23;20008;-26
2024/01/06 06:19:28;;;;;;;4.03;1.00;;;;;;;14.71;71.03;94756.94;6155177;23;20108;-27
2024/01/06 06:35:20;;;;;;;7.03;1.63;;;;;;;15.43;68.48;94783.56;6155649;23;20020;-26
2024/01/06 06:37:45;;;;;;;3.33;1.27;;;;;;;15.41;68.42;94796.97;6129992;23;20426;-26
2024/01/06 06:50:17;;;;;;;2.60;1.10;;;;;;;14.87;67.39;94831.91;6155620;23;20016;-26
2024/01/06 07:06:15;;;;;;;5.03;1.00;;;;;;;14.88;66.04;94810.81;6155731;23;20507;-26
2024/01/06 07:35:59;;;;;;;3.28;1.30;;;;;;;14.86;66.32;94805.84;6155480;23;20024;-27
2024/01/06 07:51:53;;;;;;;5.07;1.23;;;;;;;14.91;66.92;94812.56;6155345;23;20100;-27
2024/01/06 08:05:32;;;;;;;3.42;1.83;;;;;;;14.95;67.38;94807.63;6155546;23;20129;-26
2024/01/06 08:22:14;;;;;;;5.20;3.25;;;;;;;14.88;69.04;94810.81;6153802;23;20475;-27
2024/01/06 08:38:07;;;;;;;3.53;1.40;;;;;;;14.72;70.12;94804.81;6155167;23;20068;-26
2024/01/06 08:51:06;;;;;;;2.75;2.08;;;;;;;14.82;69.72;94802.63;6155143;23;20031;-27
2024/01/06 08:53:31;;;;;;;;;;;;;;;14.97;69.29;94802.38;6155157;23;20305;-26
2024/01/06 08:55:57;;;;;;;2.83;2.22;;;;;;;14.84;69.46;94793.91;6129385;23;19951;-26
2024/01/06 09:21:54;;;;;;;4.43;3.38;;;;;;;14.75;70.42;94784.00;6155368;23;20048;-26
2024/01/06 09:37:46;;;;;;;4.75;2.50;;;;;;;14.78;70.42;94787.72;6156503;23;20027;-27
2024/01/06 09:54:02;;;;;;;2.00;1.30;;;;;;;15.09;68.63;94752.75;6156137;23;20016;-26
2024/01/06 10:06:58;;;;;;;18.90;11.00;;;;;;;15.05;68.56;94748.81;6156451;23;20012;-26
2024/01/06 10:09:28;;;;;;;20.20;10.40;;;;;;;15.03;68.49;94754.00;6155980;23;20005;-26
2024/01/06 10:22:23;;;;;;;15.57;8.15;;;;;;;15.11;68.36;94741.34;6154925;23;20057;-26
2024/01/06 10:38:16;;;;;;;5.47;3.90;;;;;;;14.85;66.85;94729.91;6126291;23;20016;-26
2024/01/06 10:54:09;;;;;;;5.38;1.92;;;;;;;14.93;65.71;94704.38;6126309;23;20016;-27
2024/01/06 11:23:28;;;;;;;21.00;10.68;;;;;;;15.04;66.71;94643.56;6141092;23;20029;-27
2024/01/06 11:39:40;;;;;;;9.07;4.60;;;;;;;15.05;66.25;94623.22;6155115;23;20392;-26
2024/01/06 12:09:15;;;;;;;5.00;2.47;;;;;;;15.25;65.12;94567.56;6155095;23;20025;-26
2024/01/06 12:11:41;;;;;;;3.80;2.10;;;;;;;14.76;66.38;94564.44;6155336;23;20128;-26
2024/01/06 12:24:21;;;;;;;13.02;6.30;;;;;;;15.04;65.35;94529.66;6153472;23;20384;-26
2024/01/06 12:40:17;;;;;;;5.47;2.42;;;;;;;15.21;64.45;94513.19;6156857;23;20015;-27
2024/01/06 12:42:43;;;;;;;5.40;2.40;;;;;;;15.27;64.59;94511.19;6131417;23;20925;-26
2024/01/06 12:55:13;;;;;;;18.85;12.68;;;;;;;15.29;63.58;94503.25;6157304;23;20336;-27
2024/01/06 13:11:05;;;;;;;10.73;5.63;;;;;;;15.53;64.77;94488.97;6156901;23;20067;-27
2024/01/06 13:24:19;;;;;;;10.13;7.35;;;;;;;15.42;65.76;94470.66;6156763;23;20040;-26
2024/01/06 13:41:03;;;;;;;8.20;6.18;;;;;;;15.27;66.96;94456.59;6127160;23;20093;-26
2024/01/06 13:43:28;;;;;;;10.48;6.05;;;;;;;15.31;66.83;94457.06;6126565;23;20097;-26
2024/01/06 13:55:59;;;;;;;5.15;3.30;;;;;;;15.36;66.55;94456.28;6126901;23;20013;-27
2024/01/06 14:25:20;;;;;;;42.13;24.55;;;;;;;15.58;65.64;94449.25;6138475;23;20079;-26
2024/01/06 14:41:12;;;;;;;11.05;7.50;;;;;;;15.30;66.50;94446.66;6155801;23;20068;-27
2024/01/06 14:57:07;;;;;;;8.38;5.72;;;;;;;15.20;66.39;94429.81;6153627;23;20044;-27
2024/01/06 15:10:33;;;;;;;9.40;5.80;;;;;;;15.22;66.13;94416.38;6155232;23;20017;-26
2024/01/06 15:26:51;;;;;;;21.73;13.73;;;;;;;15.22;65.71;94407.44;6163915;23;20129;-26
2024/01/06 15:42:43;;;;;;;20.23;12.70;;;;;;;15.58;63.94;94391.88;6155662;23;20096;-27
2024/01/06 15:56:01;;;;;;;23.58;21.08;;;;;;;15.33;64.42;94385.56;6155490;23;20016;-26
2024/01/06 16:11:57;;;;;;;11.93;7.63;;;;;;;15.36;63.01;94363.41;6155213;23;20434;-26
2024/01/06 16:27:49;;;;;;;28.45;17.38;;;;;;;15.34;62.74;94340.59;6154361;23;20029;-27
2024/01/06 16:43:44;;;;;;;21.10;15.25;;;;;;;15.26;63.16;94342.41;6155016;23;20022;-27
2024/01/06 16:56:41;;;;;;;21.63;15.45;;;;;;;15.31;62.41;94349.81;6155502;23;20021;-27
2024/01/06 17:12:33;;;;;;;23.45;14.73;;;;;;;15.24;63.44;94339.44;6154838;23;20044;-27
2024/01/06 17:28:26;;;;;;;13.85;7.63;;;;;;;15.28;63.37;94335.19;6155118;23;20032;-27
2024/01/06 17:44:18;;;;;;;16.42;11.05;;;;;;;15.07;63.99;94336.81;6156236;23;20020;-26
2024/01/06 17:57:27;;;;;;;19.50;14.27;;;;;;;15.14;64.03;94347.19;6156562;23;20020;-27
2024/01/06 18:13:20;;;;;;;18.73;12.00;;;;;;;15.24;63.87;94340.16;6156280;23;20474;-26
2024/01/06 18:29:17;;;;;;;26.15;18.70;;;;;;;15.14;63.83;94317.16;6154295;23;20048;-27
2024/01/06 18:58:37;;;;;;;17.88;11.73;;;;;;;15.20;63.21;94311.66;6155570;23;20083;-27
2024/01/06 19:14:30;;;;;;;12.65;7.60;;;;;;;15.03;63.57;94312.50;6156401;23;20308;-27
2024/01/06 19:16:55;;;;;;;14.18;7.88;;;;;;;15.33;62.65;94309.81;6155445;23;20001;-26
2024/01/06 19:29:28;;;;;;;43.47;23.30;;;;;;;15.40;61.59;94314.75;6154302;23;20033;-27
2024/01/06 19:45:19;;;;;;;31.48;21.02;;;;;;;15.07;62.20;94287.69;6155317;23;20080;-27
2024/01/06 19:47:45;;;;;;;22.75;15.35;;;;;;;15.15;61.93;94283.16;6155737;23;20400;-26
2024/01/06 20:00:16;;;;;;;9.07;6.50;;;;;;;15.24;61.71;94285.56;6155594;23;20093;-26
2024/01/06 20:29:38;;;;;;;12.20;7.85;;;;;;;15.18;61.01;94282.13;6154052;23;20076;-26
2024/01/06 20:32:11;;;;;;;9.30;5.85;;;;;;;15.10;60.76;94273.00;6128894;23;20440;-26
2024/01/06 20:34:38;;;;;;;;;;;;;;;15.20;60.86;94267.97;6155918;23;20336;-26
2024/01/06 20:44:20;;;;;;;6.13;5.53;;;;;;;15.24;60.74;94282.09;6155255;23;20016;-26
2024/01/06 21:00:14;;;;;;;11.43;5.38;;;;;;;15.19;61.33;94256.31;6156813;23;20086;-26
2024/01/06 21:16:31;;;;;;;7.68;5.18;;;;;;;15.08;61.39;94248.94;6157040;23;20020;-26
2024/01/06 21:47:09;;;;;;;4.82;3.05;;;;;;;14.85;62.55;94244.16;6127234;23;20540;-26
2024/01/06 22:00:13;;;;;;;4.47;2.65;;;;;;;14.82;61.94;94235.00;6126725;23;20492;-26
2024/01/06 22:16:05;;;;;;;5.70;2.22;;;;;;;14.99;61.29;94223.94;6126492;23;20336;-26
2024/01/06 22:18:31;;;;;;;4.22;2.17;;;;;;;14.95;61.33;94229.69;6127255;23;20006;-26
2024/01/06 22:31:03;;;;;;;5.03;2.78;;;;;;;15.05;60.52;94230.13;6140375;23;20399;-26
2024/01/06 22:46:55;;;;;;;2.78;1.50;;;;;;;15.16;60.12;94237.47;6156181;23;20060;-27
2024/01/06 23:02:48;;;;;;;3.65;1.73;;;;;;;14.96;60.97;94233.19;6155284;23;20089;-26
2024/01/06 23:32:07;;;;;;;5.85;2.88;;;;;;;15.12;60.25;94239.72;6154271;23;20040;-27
2024/01/06 23:47:59;;;;;;;3.78;1.77;;;;;;;15.16;60.67;94243.69;6155654;23;20343;-27
